Kanawha Falls, WV (25115)

15:49 EDT le 19 septembre 2014 (GMT -0400)
KWVGLENF2 | Change Station
CLOSE
Current Station
Stations météorologiques personnelles
Location: Glen Ferris, WV
Altitude: 676 ft
Stations météo à proximité

Alt. 676 ft 38.15 °N, 81.22 °W | Updated 16 minutes ago

Nuageux
Nuageux
80.9 ° F
Paraît 82 ° F
N
0.0
Vent Variable Vent de NE
Gusts 0.0 mph

Aujourd'hui
Haut(e) -- | Bas -- ° F
--% Risque de précip.
Hier
Haut(e) -- | Bas -- ° F
Precip. -- pouce
7:09 AM 7:26 PM
Lune descendante, 17% visible
Pression 30.21 pouce
Visibilité 10.0 Miles terrestres
Nuages Nuageux 2300 ft
indice de chaleur 82 ° F
Point de rosée 64 ° F
Humidité 56%
Précipitations 0.00 pouce
Profondeur de la couche neigeuse Non disponible.
UV 3 sur 12
Pollen 5.10 sur 12
Qualité de l'air Non disponible.
Flu Activity Non disponible.
SPECI KBKW 191933Z AUTO 13014G21KT 10SM BKN023 20/14 A3021 RMK AO2 T02000144 TSNO

More Conditions Fewer Conditions

Pression 30.21 pouce
Visibilité 10.0 Miles terrestres
Nuages Nuageux 2300 ft
indice de chaleur 82 ° F
Point de rosée 64 ° F
Humidité 56%
Précipitations 0.00 pouce
Profondeur de la couche neigeuse Non disponible.
UV 3 sur 12
Pollen 5.10 sur 12
Qualité de l'air Non disponible.
Flu Activity Non disponible.
SPECI KBKW 191933Z AUTO 13014G21KT 10SM BKN023 20/14 A3021 RMK AO2 T02000144 TSNO

More Conditions Fewer Conditions

10-Day Weather Forecast

Almanac

Astronomie

Sep. 19, 2014 Lever Coucher
Temps réel 07:09 EDT 19:26 EDT
Crépuscule civil 06:43 EDT 19:52 EDT
Crépuscule nautique 06:12 EDT 20:23 EDT
Crépuscule astronomique 05:41 EDT 20:54 EDT
Lune 02:56 EDT 16:51 EDT
Durée de lumière visible 13h 09m
Longueur du jour
12h 16m
Tomorrow will be 2m 25s shorter.
Lune descendante, 17% of the Moon is Illuminated
Aujourd'hui
Lune descendante
Sep 24
Nouveau
Oct 1
Premier quartier
Oct 8
Pleine lune
Oct 15
Dernier quartier

Extrêmes aujourd'hui

State Highs State Lows

Community

WunderPhotos

Upload Photos

1,754,687 Photos téléchargées !

WunderBlogs® & News

Nearby

Épaisseur de neige

Station Depth Altitude
Pas de nouvelles chutes de neige

Activité sismique

Ville Distance Mag. Time & Date
No recent earthquake activity has been reported nearby.
Minimum magnitude displayed is 2.5.

Températures des eaux côtières

Lieu Température
Aucun rapport de station

Stations météo à proximité